Αρχική σελίδα
METAR-TAF:

METAR-TAF

Αεροδρόμια :

Hebron Municipal Airport

Hebron, Νεμπράσκα, Ηνωμένες Πολιτείες Αμερικής

γεωγραφικό πλάτος: 40-09-08N, γεωγραφικό μήκος: 097-35-13W, υψόμετρο: 447 μ

Παρών καιρός

Η αναφορά έγινε 16 λεπτά πριν, στις 23:55 UTC
Άνεμος 6 kt από Α
Θερμοκρασία 30°C
Υγρασία 43%
Πίεση 1016 hPa
Ορατότητα: 16.1 χλμ
Καθαρός ουρανός

METAR: KHJH 222355Z AUTO 08006KT 10SM CLR 30/16 A3000 RMK AO2 T02950160 10305 20279

Χρόνος: 19:11 (00:11 UTC)


TAF: λείπει

Μετεωρολογικές αναφορές και προγνώσεις για περισσότερα από 4000 αεροδρόμια (δελτία METAR και TAF).

Οι διαθέσιμοι σταθμοί απεικονίζονται στο χάρτη με κίτρινες και κόκκινες κουκκίδες.

Μετακινήστε το ποντίκι πάνω από τις κουκκίδες για να δείτε το όνομα του σταθμού.

Στη συνέχεια, κάντε κλικ για να δείτε τις μετεωρολογικές αναφορές και τις προγνώσεις καιρού.

Για να αλλάξετε το χάρτη: κάντε κλικ στα πράσινα κουμπιά με τον μαύρο σταυρό για να ζουμάρετε, στο πράσινο κουμπί με την παύλα για να αφαιρέσετε το ζουμ ή στα πράσινα βέλη για να αντιπαραβάλλετε χάρτες.


METAR-TAF: